sensor_id;sensor_type;location;lat;lon;timestamp;temperature;humidity
7192;DHT22;3637;51.494;11.958;2022-12-24T00:02:54;10.30;99.90
7192;DHT22;3637;51.494;11.958;2022-12-24T00:05:56;9.60;99.90
7192;DHT22;3637;51.494;11.958;2022-12-24T00:08:59;9.90;99.90
7192;DHT22;3637;51.494;11.958;2022-12-24T00:12:01;9.70;99.90
7192;DHT22;3637;51.494;11.958;2022-12-24T00:15:03;9.70;99.90
7192;DHT22;3637;51.494;11.958;2022-12-24T00:18:05;9.60;99.90
7192;DHT22;3637;51.494;11.958;2022-12-24T00:21:07;9.70;99.90
7192;DHT22;3637;51.494;11.958;2022-12-24T00:24:10;9.60;99.90
7192;DHT22;3637;51.494;11.958;2022-12-24T00:27:11;10.20;99.90
7192;DHT22;3637;51.494;11.958;2022-12-24T00:30:13;9.70;99.90
7192;DHT22;3637;51.494;11.958;2022-12-24T00:33:15;10.10;99.90
7192;DHT22;3637;51.494;11.958;2022-12-24T00:36:18;9.80;99.90
7192;DHT22;3637;51.494;11.958;2022-12-24T00:39:21;9.60;99.90
7192;DHT22;3637;51.494;11.958;2022-12-24T00:42:23;9.70;99.90
7192;DHT22;3637;51.494;11.958;2022-12-24T00:45:25;9.70;99.90
7192;DHT22;3637;51.494;11.958;2022-12-24T00:48:27;10.70;99.90
7192;DHT22;3637;51.494;11.958;2022-12-24T00:51:29;9.70;99.90
7192;DHT22;3637;51.494;11.958;2022-12-24T00:54:33;9.80;99.90
7192;DHT22;3637;51.494;11.958;2022-12-24T00:57:35;9.70;99.90
7192;DHT22;3637;51.494;11.958;2022-12-24T01:00:36;9.70;99.90
7192;DHT22;3637;51.494;11.958;2022-12-24T01:03:39;9.70;99.90
7192;DHT22;3637;51.494;11.958;2022-12-24T01:06:40;9.70;99.90
7192;DHT22;3637;51.494;11.958;2022-12-24T01:09:43;9.70;99.90
7192;DHT22;3637;51.494;11.958;2022-12-24T01:12:45;9.70;99.90
7192;DHT22;3637;51.494;11.958;2022-12-24T01:15:47;9.70;99.90
7192;DHT22;3637;51.494;11.958;2022-12-24T01:18:49;9.70;99.90
7192;DHT22;3637;51.494;11.958;2022-12-24T01:21:50;9.70;99.90
7192;DHT22;3637;51.494;11.958;2022-12-24T01:24:54;9.60;99.90
7192;DHT22;3637;51.494;11.958;2022-12-24T01:27:56;9.70;99.90
7192;DHT22;3637;51.494;11.958;2022-12-24T01:30:57;9.70;99.90
7192;DHT22;3637;51.494;11.958;2022-12-24T01:34:00;9.80;99.90
7192;DHT22;3637;51.494;11.958;2022-12-24T01:37:01;9.10;99.90
7192;DHT22;3637;51.494;11.958;2022-12-24T01:40:06;9.80;99.90
7192;DHT22;3637;51.494;11.958;2022-12-24T01:43:28;9.80;99.90
7192;DHT22;3637;51.494;11.958;2022-12-24T01:46:30;9.60;99.90
7192;DHT22;3637;51.494;11.958;2022-12-24T01:49:33;9.80;99.90
7192;DHT22;3637;51.494;11.958;2022-12-24T01:52:36;10.00;99.90
7192;DHT22;3637;51.494;11.958;2022-12-24T01:55:39;9.90;99.90
7192;DHT22;3637;51.494;11.958;2022-12-24T01:58:45;9.70;99.90
7192;DHT22;3637;51.494;11.958;2022-12-24T02:01:49;9.70;99.90
7192;DHT22;3637;51.494;11.958;2022-12-24T02:04:54;9.80;99.90
7192;DHT22;3637;51.494;11.958;2022-12-24T02:07:59;9.80;99.90
7192;DHT22;3637;51.494;11.958;2022-12-24T02:11:08;9.80;99.90
7192;DHT22;3637;51.494;11.958;2022-12-24T02:14:11;10.80;99.90
7192;DHT22;3637;51.494;11.958;2022-12-24T02:17:20;9.80;99.90
7192;DHT22;3637;51.494;11.958;2022-12-24T02:20:50;10.20;99.90
7192;DHT22;3637;51.494;11.958;2022-12-24T02:24:35;9.80;99.90
7192;DHT22;3637;51.494;11.958;2022-12-24T02:27:53;9.90;99.90
7192;DHT22;3637;51.494;11.958;2022-12-24T02:30:59;10.20;99.90
7192;DHT22;3637;51.494;11.958;2022-12-24T02:34:07;9.80;99.90
7192;DHT22;3637;51.494;11.958;2022-12-24T02:37:16;9.80;99.90
7192;DHT22;3637;51.494;11.958;2022-12-24T02:40:22;9.70;99.90
7192;DHT22;3637;51.494;11.958;2022-12-24T02:43:28;9.70;99.90
7192;DHT22;3637;51.494;11.958;2022-12-24T02:46:33;9.80;99.90
7192;DHT22;3637;51.494;11.958;2022-12-24T02:49:35;10.90;99.90
7192;DHT22;3637;51.494;11.958;2022-12-24T02:52:39;9.80;99.90
7192;DHT22;3637;51.494;11.958;2022-12-24T02:55:47;11.00;99.90
7192;DHT22;3637;51.494;11.958;2022-12-24T02:59:05;10.60;99.90
7192;DHT22;3637;51.494;11.958;2022-12-24T03:02:19;9.60;99.90
7192;DHT22;3637;51.494;11.958;2022-12-24T03:05:29;9.80;99.90
7192;DHT22;3637;51.494;11.958;2022-12-24T03:08:39;9.80;99.90
7192;DHT22;3637;51.494;11.958;2022-12-24T03:11:49;9.90;99.90
7192;DHT22;3637;51.494;11.958;2022-12-24T03:14:54;10.70;99.90
7192;DHT22;3637;51.494;11.958;2022-12-24T03:18:00;10.00;99.90
7192;DHT22;3637;51.494;11.958;2022-12-24T03:21:06;9.90;99.90
7192;DHT22;3637;51.494;11.958;2022-12-24T03:24:10;9.90;99.90
7192;DHT22;3637;51.494;11.958;2022-12-24T03:27:13;9.70;99.90
7192;DHT22;3637;51.494;11.958;2022-12-24T03:30:15;9.90;99.90
7192;DHT22;3637;51.494;11.958;2022-12-24T03:33:19;9.90;99.90
7192;DHT22;3637;51.494;11.958;2022-12-24T03:36:21;10.50;99.90
7192;DHT22;3637;51.494;11.958;2022-12-24T03:39:24;10.20;99.90
7192;DHT22;3637;51.494;11.958;2022-12-24T03:42:26;10.60;99.90
7192;DHT22;3637;51.494;11.958;2022-12-24T03:45:28;10.00;99.90
7192;DHT22;3637;51.494;11.958;2022-12-24T03:48:32;10.00;99.90
7192;DHT22;3637;51.494;11.958;2022-12-24T03:51:34;10.40;99.90
7192;DHT22;3637;51.494;11.958;2022-12-24T03:54:35;10.20;99.90
7192;DHT22;3637;51.494;11.958;2022-12-24T03:57:37;10.20;99.90
7192;DHT22;3637;51.494;11.958;2022-12-24T04:00:39;10.00;99.90
7192;DHT22;3637;51.494;11.958;2022-12-24T04:03:42;10.00;99.90
7192;DHT22;3637;51.494;11.958;2022-12-24T04:06:44;10.70;99.90
7192;DHT22;3637;51.494;11.958;2022-12-24T04:09:46;10.00;99.90
7192;DHT22;3637;51.494;11.958;2022-12-24T04:12:48;10.10;99.90
7192;DHT22;3637;51.494;11.958;2022-12-24T04:15:56;10.10;99.90
7192;DHT22;3637;51.494;11.958;2022-12-24T04:18:59;10.10;99.90
7192;DHT22;3637;51.494;11.958;2022-12-24T04:22:01;10.50;99.90
7192;DHT22;3637;51.494;11.958;2022-12-24T04:25:03;10.10;99.90
7192;DHT22;3637;51.494;11.958;2022-12-24T04:28:05;10.00;99.90
7192;DHT22;3637;51.494;11.958;2022-12-24T04:31:08;10.00;99.90
7192;DHT22;3637;51.494;11.958;2022-12-24T04:34:12;10.00;99.90
7192;DHT22;3637;51.494;11.958;2022-12-24T04:37:14;10.30;99.90
7192;DHT22;3637;51.494;11.958;2022-12-24T04:40:16;10.80;99.90
7192;DHT22;3637;51.494;11.958;2022-12-24T04:43:18;10.00;99.90
7192;DHT22;3637;51.494;11.958;2022-12-24T04:46:21;10.00;99.90
7192;DHT22;3637;51.494;11.958;2022-12-24T04:49:24;10.00;99.90
7192;DHT22;3637;51.494;11.958;2022-12-24T04:52:27;10.50;99.90
7192;DHT22;3637;51.494;11.958;2022-12-24T04:55:28;9.80;99.90
7192;DHT22;3637;51.494;11.958;2022-12-24T04:58:30;10.40;99.90
7192;DHT22;3637;51.494;11.958;2022-12-24T05:01:32;10.10;99.90
7192;DHT22;3637;51.494;11.958;2022-12-24T05:04:35;10.10;99.90
7192;DHT22;3637;51.494;11.958;2022-12-24T05:07:37;9.90;99.90
7192;DHT22;3637;51.494;11.958;2022-12-24T05:10:39;11.00;99.90
7192;DHT22;3637;51.494;11.958;2022-12-24T05:13:41;10.30;99.90
7192;DHT22;3637;51.494;11.958;2022-12-24T05:16:43;10.00;99.90
7192;DHT22;3637;51.494;11.958;2022-12-24T05:19:46;9.90;99.90
7192;DHT22;3637;51.494;11.958;2022-12-24T05:22:48;9.90;99.90
7192;DHT22;3637;51.494;11.958;2022-12-24T05:26:13;9.40;99.90
7192;DHT22;3637;51.494;11.958;2022-12-24T05:29:25;9.80;99.90
7192;DHT22;3637;51.494;11.958;2022-12-24T05:32:29;10.00;99.90
7192;DHT22;3637;51.494;11.958;2022-12-24T05:35:32;9.80;99.90
7192;DHT22;3637;51.494;11.958;2022-12-24T05:38:34;10.00;99.90
7192;DHT22;3637;51.494;11.958;2022-12-24T05:41:36;9.70;99.90
7192;DHT22;3637;51.494;11.958;2022-12-24T05:44:37;9.70;99.90
7192;DHT22;3637;51.494;11.958;2022-12-24T05:47:40;9.70;99.90
7192;DHT22;3637;51.494;11.958;2022-12-24T05:50:43;9.70;99.90
7192;DHT22;3637;51.494;11.958;2022-12-24T05:53:45;10.40;99.90
7192;DHT22;3637;51.494;11.958;2022-12-24T05:56:47;9.70;99.90
7192;DHT22;3637;51.494;11.958;2022-12-24T05:59:49;9.70;99.90
7192;DHT22;3637;51.494;11.958;2022-12-24T06:02:51;9.90;99.90
7192;DHT22;3637;51.494;11.958;2022-12-24T06:06:05;9.70;99.90
7192;DHT22;3637;51.494;11.958;2022-12-24T06:09:07;9.70;99.90
7192;DHT22;3637;51.494;11.958;2022-12-24T06:12:09;9.70;99.90
7192;DHT22;3637;51.494;11.958;2022-12-24T06:15:11;9.80;99.90
7192;DHT22;3637;51.494;11.958;2022-12-24T06:18:13;9.70;99.90
7192;DHT22;3637;51.494;11.958;2022-12-24T06:21:17;9.70;99.90
7192;DHT22;3637;51.494;11.958;2022-12-24T06:24:19;10.10;99.90
7192;DHT22;3637;51.494;11.958;2022-12-24T06:27:21;9.70;99.90
7192;DHT22;3637;51.494;11.958;2022-12-24T06:30:22;10.00;99.90
7192;DHT22;3637;51.494;11.958;2022-12-24T06:33:24;9.70;99.90
7192;DHT22;3637;51.494;11.958;2022-12-24T06:36:27;10.20;99.90
7192;DHT22;3637;51.494;11.958;2022-12-24T06:39:29;10.50;99.90
7192;DHT22;3637;51.494;11.958;2022-12-24T06:42:31;9.50;99.90
7192;DHT22;3637;51.494;11.958;2022-12-24T06:45:33;9.40;99.90
7192;DHT22;3637;51.494;11.958;2022-12-24T06:48:35;9.70;99.90
7192;DHT22;3637;51.494;11.958;2022-12-24T06:51:38;9.50;99.90
7192;DHT22;3637;51.494;11.958;2022-12-24T06:54:39;9.30;99.90
7192;DHT22;3637;51.494;11.958;2022-12-24T06:57:41;10.10;99.90
7192;DHT22;3637;51.494;11.958;2022-12-24T07:00:43;9.10;99.90
7192;DHT22;3637;51.494;11.958;2022-12-24T07:03:45;9.10;99.90
7192;DHT22;3637;51.494;11.958;2022-12-24T07:06:49;9.20;99.90
7192;DHT22;3637;51.494;11.958;2022-12-24T07:09:50;9.00;99.90
7192;DHT22;3637;51.494;11.958;2022-12-24T07:12:55;9.00;99.90
7192;DHT22;3637;51.494;11.958;2022-12-24T07:15:57;10.10;99.90
7192;DHT22;3637;51.494;11.958;2022-12-24T07:18:59;10.00;99.90
7192;DHT22;3637;51.494;11.958;2022-12-24T07:22:02;8.20;99.90
7192;DHT22;3637;51.494;11.958;2022-12-24T07:25:05;8.90;99.90
7192;DHT22;3637;51.494;11.958;2022-12-24T07:28:06;8.90;99.90
7192;DHT22;3637;51.494;11.958;2022-12-24T07:31:08;8.80;99.90
7192;DHT22;3637;51.494;11.958;2022-12-24T07:34:10;8.90;99.90
7192;DHT22;3637;51.494;11.958;2022-12-24T07:37:13;9.30;99.90
7192;DHT22;3637;51.494;11.958;2022-12-24T07:40:15;8.80;99.90
7192;DHT22;3637;51.494;11.958;2022-12-24T07:43:17;9.00;99.90
7192;DHT22;3637;51.494;11.958;2022-12-24T07:46:19;8.70;99.90
7192;DHT22;3637;51.494;11.958;2022-12-24T07:49:20;8.80;99.90
7192;DHT22;3637;51.494;11.958;2022-12-24T07:52:24;8.80;99.90
7192;DHT22;3637;51.494;11.958;2022-12-24T07:55:25;8.90;99.90
7192;DHT22;3637;51.494;11.958;2022-12-24T07:58:27;8.90;99.90
7192;DHT22;3637;51.494;11.958;2022-12-24T08:01:29;8.80;99.90
7192;DHT22;3637;51.494;11.958;2022-12-24T08:04:31;8.40;99.90
7192;DHT22;3637;51.494;11.958;2022-12-24T08:07:37;8.80;99.90
7192;DHT22;3637;51.494;11.958;2022-12-24T08:10:39;8.80;99.90
7192;DHT22;3637;51.494;11.958;2022-12-24T08:13:41;8.80;99.90
7192;DHT22;3637;51.494;11.958;2022-12-24T08:16:42;8.10;99.90
7192;DHT22;3637;51.494;11.958;2022-12-24T08:19:44;8.80;99.90
7192;DHT22;3637;51.494;11.958;2022-12-24T08:22:47;9.10;99.90
7192;DHT22;3637;51.494;11.958;2022-12-24T08:25:49;9.00;99.90
7192;DHT22;3637;51.494;11.958;2022-12-24T08:28:51;9.00;99.90
7192;DHT22;3637;51.494;11.958;2022-12-24T08:31:53;10.00;99.90
7192;DHT22;3637;51.494;11.958;2022-12-24T08:34:55;9.10;99.90
7192;DHT22;3637;51.494;11.958;2022-12-24T08:38:00;9.10;99.90
7192;DHT22;3637;51.494;11.958;2022-12-24T08:41:02;9.10;99.90
7192;DHT22;3637;51.494;11.958;2022-12-24T08:44:06;9.10;99.90
7192;DHT22;3637;51.494;11.958;2022-12-24T08:47:08;9.10;99.90
7192;DHT22;3637;51.494;11.958;2022-12-24T08:50:11;9.20;99.90
7192;DHT22;3637;51.494;11.958;2022-12-24T08:53:14;9.20;99.90
7192;DHT22;3637;51.494;11.958;2022-12-24T08:56:16;9.20;99.90
7192;DHT22;3637;51.494;11.958;2022-12-24T08:59:18;9.30;99.90
7192;DHT22;3637;51.494;11.958;2022-12-24T09:02:20;9.40;99.90
7192;DHT22;3637;51.494;11.958;2022-12-24T09:05:22;9.40;99.90
7192;DHT22;3637;51.494;11.958;2022-12-24T09:08:29;10.70;99.90
7192;DHT22;3637;51.494;11.958;2022-12-24T09:11:33;9.60;99.90
7192;DHT22;3637;51.494;11.958;2022-12-24T09:14:35;10.40;99.90
7192;DHT22;3637;51.494;11.958;2022-12-24T09:17:37;9.70;99.90
7192;DHT22;3637;51.494;11.958;2022-12-24T09:20:39;9.70;99.90
7192;DHT22;3637;51.494;11.958;2022-12-24T09:23:43;10.00;99.90
7192;DHT22;3637;51.494;11.958;2022-12-24T09:26:45;9.50;99.90
7192;DHT22;3637;51.494;11.958;2022-12-24T09:29:49;9.50;99.90
7192;DHT22;3637;51.494;11.958;2022-12-24T09:32:50;9.50;99.90
7192;DHT22;3637;51.494;11.958;2022-12-24T09:35:52;9.50;99.90
7192;DHT22;3637;51.494;11.958;2022-12-24T09:38:55;9.60;99.90
7192;DHT22;3637;51.494;11.958;2022-12-24T09:42:02;10.60;99.90
7192;DHT22;3637;51.494;11.958;2022-12-24T09:45:14;9.80;99.90
7192;DHT22;3637;51.494;11.958;2022-12-24T09:48:20;10.00;99.90
7192;DHT22;3637;51.494;11.958;2022-12-24T09:51:30;10.20;99.90
7192;DHT22;3637;51.494;11.958;2022-12-24T09:54:37;10.50;99.90
7192;DHT22;3637;51.494;11.958;2022-12-24T09:57:40;10.20;99.90
7192;DHT22;3637;51.494;11.958;2022-12-24T10:00:43;10.30;99.90
7192;DHT22;3637;51.494;11.958;2022-12-24T10:03:47;11.00;99.90
7192;DHT22;3637;51.494;11.958;2022-12-24T10:06:53;10.30;99.90
7192;DHT22;3637;51.494;11.958;2022-12-24T10:10:05;10.40;99.90
7192;DHT22;3637;51.494;11.958;2022-12-24T10:13:17;10.80;99.90
7192;DHT22;3637;51.494;11.958;2022-12-24T10:16:25;11.80;99.90
7192;DHT22;3637;51.494;11.958;2022-12-24T10:19:38;10.50;99.90
7192;DHT22;3637;51.494;11.958;2022-12-24T10:22:52;10.60;99.90
7192;DHT22;3637;51.494;11.958;2022-12-24T10:26:08;10.50;99.90
7192;DHT22;3637;51.494;11.958;2022-12-24T10:29:14;10.40;99.90
7192;DHT22;3637;51.494;11.958;2022-12-24T10:32:21;10.30;99.90
7192;DHT22;3637;51.494;11.958;2022-12-24T10:35:28;10.30;99.90
7192;DHT22;3637;51.494;11.958;2022-12-24T10:38:32;10.20;99.90
7192;DHT22;3637;51.494;11.958;2022-12-24T10:41:36;10.20;99.90
7192;DHT22;3637;51.494;11.958;2022-12-24T10:44:38;10.20;99.90
7192;DHT22;3637;51.494;11.958;2022-12-24T10:47:40;10.80;99.90
7192;DHT22;3637;51.494;11.958;2022-12-24T10:50:53;11.10;99.90
7192;DHT22;3637;51.494;11.958;2022-12-24T10:54:00;10.40;99.90
7192;DHT22;3637;51.494;11.958;2022-12-24T10:57:05;10.00;99.90
7192;DHT22;3637;51.494;11.958;2022-12-24T11:00:23;12.10;99.90
7192;DHT22;3637;51.494;11.958;2022-12-24T11:03:29;11.80;99.90
7192;DHT22;3637;51.494;11.958;2022-12-24T11:06:31;10.60;99.90
7192;DHT22;3637;51.494;11.958;2022-12-24T11:09:35;10.60;99.90
7192;DHT22;3637;51.494;11.958;2022-12-24T11:12:46;10.60;99.90
7192;DHT22;3637;51.494;11.958;2022-12-24T11:15:51;10.70;99.90
7192;DHT22;3637;51.494;11.958;2022-12-24T11:19:03;11.10;99.90
7192;DHT22;3637;51.494;11.958;2022-12-24T11:22:07;11.00;99.90
7192;DHT22;3637;51.494;11.958;2022-12-24T11:25:20;10.80;99.90
7192;DHT22;3637;51.494;11.958;2022-12-24T11:28:26;11.10;99.90
7192;DHT22;3637;51.494;11.958;2022-12-24T11:31:28;11.60;99.90
7192;DHT22;3637;51.494;11.958;2022-12-24T11:34:32;11.20;99.90
7192;DHT22;3637;51.494;11.958;2022-12-24T11:37:34;11.30;99.90
7192;DHT22;3637;51.494;11.958;2022-12-24T11:40:37;11.70;99.90
7192;DHT22;3637;51.494;11.958;2022-12-24T11:43:44;11.30;99.90
7192;DHT22;3637;51.494;11.958;2022-12-24T11:46:46;11.40;99.90
7192;DHT22;3637;51.494;11.958;2022-12-24T11:49:51;11.50;99.90
7192;DHT22;3637;51.494;11.958;2022-12-24T11:53:02;11.30;99.90
7192;DHT22;3637;51.494;11.958;2022-12-24T11:56:11;11.30;99.90
7192;DHT22;3637;51.494;11.958;2022-12-24T11:59:19;10.80;99.90
7192;DHT22;3637;51.494;11.958;2022-12-24T12:02:25;11.10;99.90
7192;DHT22;3637;51.494;11.958;2022-12-24T12:05:31;11.40;99.90
7192;DHT22;3637;51.494;11.958;2022-12-24T12:08:34;11.30;99.90
7192;DHT22;3637;51.494;11.958;2022-12-24T12:11:38;11.00;99.90
7192;DHT22;3637;51.494;11.958;2022-12-24T12:14:47;11.50;99.90
7192;DHT22;3637;51.494;11.958;2022-12-24T12:17:55;11.10;99.90
7192;DHT22;3637;51.494;11.958;2022-12-24T12:21:02;11.30;99.90
7192;DHT22;3637;51.494;11.958;2022-12-24T12:24:10;11.30;99.90
7192;DHT22;3637;51.494;11.958;2022-12-24T12:27:19;11.30;99.90
7192;DHT22;3637;51.494;11.958;2022-12-24T12:30:22;11.30;99.90
7192;DHT22;3637;51.494;11.958;2022-12-24T12:33:30;11.30;99.90
7192;DHT22;3637;51.494;11.958;2022-12-24T12:36:39;11.30;99.90
7192;DHT22;3637;51.494;11.958;2022-12-24T12:39:43;11.30;99.90
7192;DHT22;3637;51.494;11.958;2022-12-24T12:42:51;11.30;99.90
7192;DHT22;3637;51.494;11.958;2022-12-24T12:46:05;11.30;99.90
7192;DHT22;3637;51.494;11.958;2022-12-24T12:49:23;11.20;99.90
7192;DHT22;3637;51.494;11.958;2022-12-24T12:52:39;11.20;99.90
7192;DHT22;3637;51.494;11.958;2022-12-24T12:55:48;11.50;99.90
7192;DHT22;3637;51.494;11.958;2022-12-24T12:58:56;11.10;99.90
7192;DHT22;3637;51.494;11.958;2022-12-24T13:02:17;11.10;99.90
7192;DHT22;3637;51.494;11.958;2022-12-24T13:05:50;11.10;99.90
7192;DHT22;3637;51.494;11.958;2022-12-24T13:09:10;11.00;99.90
7192;DHT22;3637;51.494;11.958;2022-12-24T13:12:34;10.90;99.90
7192;DHT22;3637;51.494;11.958;2022-12-24T13:16:08;10.90;99.90
7192;DHT22;3637;51.494;11.958;2022-12-24T13:19:25;11.50;99.90
7192;DHT22;3637;51.494;11.958;2022-12-24T13:22:29;10.80;99.90
7192;DHT22;3637;51.494;11.958;2022-12-24T13:25:35;10.70;99.90
7192;DHT22;3637;51.494;11.958;2022-12-24T13:28:37;10.70;99.90
7192;DHT22;3637;51.494;11.958;2022-12-24T13:31:39;11.50;99.90
7192;DHT22;3637;51.494;11.958;2022-12-24T13:34:47;10.20;99.90
7192;DHT22;3637;51.494;11.958;2022-12-24T13:37:50;10.50;99.90
7192;DHT22;3637;51.494;11.958;2022-12-24T13:40:52;10.50;99.90
7192;DHT22;3637;51.494;11.958;2022-12-24T13:44:14;10.10;99.90
7192;DHT22;3637;51.494;11.958;2022-12-24T13:47:21;10.50;99.90
7192;DHT22;3637;51.494;11.958;2022-12-24T13:50:34;10.50;99.90
7192;DHT22;3637;51.494;11.958;2022-12-24T13:53:41;10.50;99.90
7192;DHT22;3637;51.494;11.958;2022-12-24T13:56:43;10.60;99.90
7192;DHT22;3637;51.494;11.958;2022-12-24T13:59:46;11.10;99.90
7192;DHT22;3637;51.494;11.958;2022-12-24T14:02:52;10.50;99.90
7192;DHT22;3637;51.494;11.958;2022-12-24T14:06:01;10.50;99.90
7192;DHT22;3637;51.494;11.958;2022-12-24T14:09:07;10.50;99.90
7192;DHT22;3637;51.494;11.958;2022-12-24T14:12:28;10.50;99.90
7192;DHT22;3637;51.494;11.958;2022-12-24T14:16:06;10.80;99.90
7192;DHT22;3637;51.494;11.958;2022-12-24T14:19:12;10.50;99.90
7192;DHT22;3637;51.494;11.958;2022-12-24T14:22:26;10.50;99.90
7192;DHT22;3637;51.494;11.958;2022-12-24T14:25:29;10.60;99.90
7192;DHT22;3637;51.494;11.958;2022-12-24T14:28:35;11.70;99.90
7192;DHT22;3637;51.494;11.958;2022-12-24T14:31:49;10.60;99.90
7192;DHT22;3637;51.494;11.958;2022-12-24T14:35:07;10.20;99.90
7192;DHT22;3637;51.494;11.958;2022-12-24T14:38:14;11.50;99.90
7192;DHT22;3637;51.494;11.958;2022-12-24T14:41:39;11.00;99.90
7192;DHT22;3637;51.494;11.958;2022-12-24T14:44:52;10.50;99.90
7192;DHT22;3637;51.494;11.958;2022-12-24T14:48:02;10.50;99.90
7192;DHT22;3637;51.494;11.958;2022-12-24T14:51:11;11.10;99.90
7192;DHT22;3637;51.494;11.958;2022-12-24T14:54:33;11.50;99.90
7192;DHT22;3637;51.494;11.958;2022-12-24T14:57:35;10.50;99.90
7192;DHT22;3637;51.494;11.958;2022-12-24T15:00:37;10.60;99.90
7192;DHT22;3637;51.494;11.958;2022-12-24T15:03:45;10.60;99.90
7192;DHT22;3637;51.494;11.958;2022-12-24T15:06:51;10.60;99.90
7192;DHT22;3637;51.494;11.958;2022-12-24T15:09:55;11.40;99.90
7192;DHT22;3637;51.494;11.958;2022-12-24T15:13:01;10.60;99.90
7192;DHT22;3637;51.494;11.958;2022-12-24T15:16:11;11.20;99.90
7192;DHT22;3637;51.494;11.958;2022-12-24T15:19:21;11.30;99.90
7192;DHT22;3637;51.494;11.958;2022-12-24T15:22:28;10.50;99.90
7192;DHT22;3637;51.494;11.958;2022-12-24T15:25:35;10.60;99.90
7192;DHT22;3637;51.494;11.958;2022-12-24T15:28:37;10.80;99.90
7192;DHT22;3637;51.494;11.958;2022-12-24T15:31:39;10.70;99.90
7192;DHT22;3637;51.494;11.958;2022-12-24T15:34:54;10.20;99.90
7192;DHT22;3637;51.494;11.958;2022-12-24T15:38:00;10.10;99.90
7192;DHT22;3637;51.494;11.958;2022-12-24T15:41:18;10.50;99.90
7192;DHT22;3637;51.494;11.958;2022-12-24T15:44:21;9.90;99.90
7192;DHT22;3637;51.494;11.958;2022-12-24T15:47:26;10.00;99.90
7192;DHT22;3637;51.494;11.958;2022-12-24T15:50:37;9.90;99.90
7192;DHT22;3637;51.494;11.958;2022-12-24T15:53:46;10.40;99.90
7192;DHT22;3637;51.494;11.958;2022-12-24T15:56:51;9.80;99.90
7192;DHT22;3637;51.494;11.958;2022-12-24T15:59:55;9.70;99.90
7192;DHT22;3637;51.494;11.958;2022-12-24T16:03:11;9.70;99.90
7192;DHT22;3637;51.494;11.958;2022-12-24T16:06:20;9.80;99.90
7192;DHT22;3637;51.494;11.958;2022-12-24T16:09:30;9.90;99.90
7192;DHT22;3637;51.494;11.958;2022-12-24T16:12:40;9.10;99.90
7192;DHT22;3637;51.494;11.958;2022-12-24T16:15:50;9.40;99.90
7192;DHT22;3637;51.494;11.958;2022-12-24T16:18:55;9.30;99.90
7192;DHT22;3637;51.494;11.958;2022-12-24T16:21:58;9.90;99.90
7192;DHT22;3637;51.494;11.958;2022-12-24T16:25:26;9.20;99.90
7192;DHT22;3637;51.494;11.958;2022-12-24T16:28:30;9.40;99.90
7192;DHT22;3637;51.494;11.958;2022-12-24T16:31:34;9.00;99.90
7192;DHT22;3637;51.494;11.958;2022-12-24T16:34:43;9.00;99.90
7192;DHT22;3637;51.494;11.958;2022-12-24T16:37:45;9.10;99.90
7192;DHT22;3637;51.494;11.958;2022-12-24T16:40:47;9.20;99.90
7192;DHT22;3637;51.494;11.958;2022-12-24T16:43:50;9.10;99.90
7192;DHT22;3637;51.494;11.958;2022-12-24T16:46:51;10.30;99.90
7192;DHT22;3637;51.494;11.958;2022-12-24T16:49:53;9.00;99.90
7192;DHT22;3637;51.494;11.958;2022-12-24T16:53:02;9.00;99.90
7192;DHT22;3637;51.494;11.958;2022-12-24T16:56:05;9.00;99.90
7192;DHT22;3637;51.494;11.958;2022-12-24T16:59:12;9.00;99.90
7192;DHT22;3637;51.494;11.958;2022-12-24T17:02:16;9.00;99.90
7192;DHT22;3637;51.494;11.958;2022-12-24T17:05:19;9.10;99.90
7192;DHT22;3637;51.494;11.958;2022-12-24T17:08:23;8.90;99.90
7192;DHT22;3637;51.494;11.958;2022-12-24T17:11:24;8.90;99.90
7192;DHT22;3637;51.494;11.958;2022-12-24T17:14:28;8.80;99.90
7192;DHT22;3637;51.494;11.958;2022-12-24T17:17:29;8.80;99.90
7192;DHT22;3637;51.494;11.958;2022-12-24T17:20:31;8.80;99.90
7192;DHT22;3637;51.494;11.958;2022-12-24T17:23:33;10.00;99.90
7192;DHT22;3637;51.494;11.958;2022-12-24T17:26:35;8.80;99.90
7192;DHT22;3637;51.494;11.958;2022-12-24T17:29:39;8.80;99.90
7192;DHT22;3637;51.494;11.958;2022-12-24T17:32:40;8.80;99.90
7192;DHT22;3637;51.494;11.958;2022-12-24T17:35:43;8.70;99.90
7192;DHT22;3637;51.494;11.958;2022-12-24T17:38:48;9.00;99.90
7192;DHT22;3637;51.494;11.958;2022-12-24T17:41:49;8.80;99.90
7192;DHT22;3637;51.494;11.958;2022-12-24T17:44:53;8.90;99.90
7192;DHT22;3637;51.494;11.958;2022-12-24T17:47:54;8.70;99.90
7192;DHT22;3637;51.494;11.958;2022-12-24T17:50:56;9.10;99.90
7192;DHT22;3637;51.494;11.958;2022-12-24T17:53:58;8.70;99.90
7192;DHT22;3637;51.494;11.958;2022-12-24T17:57:00;9.70;99.90
7192;DHT22;3637;51.494;11.958;2022-12-24T18:00:05;8.60;99.90
7192;DHT22;3637;51.494;11.958;2022-12-24T18:03:10;8.60;99.90
7192;DHT22;3637;51.494;11.958;2022-12-24T18:06:13;8.60;99.90
7192;DHT22;3637;51.494;11.958;2022-12-24T18:09:15;8.60;99.90
7192;DHT22;3637;51.494;11.958;2022-12-24T18:12:17;8.60;99.90
7192;DHT22;3637;51.494;11.958;2022-12-24T18:15:21;8.60;99.90
7192;DHT22;3637;51.494;11.958;2022-12-24T18:18:23;8.70;99.90
7192;DHT22;3637;51.494;11.958;2022-12-24T18:21:27;9.10;99.90
7192;DHT22;3637;51.494;11.958;2022-12-24T18:24:28;9.40;99.90
7192;DHT22;3637;51.494;11.958;2022-12-24T18:27:31;8.90;99.90
7192;DHT22;3637;51.494;11.958;2022-12-24T18:30:36;8.70;99.90
7192;DHT22;3637;51.494;11.958;2022-12-24T18:33:38;8.50;99.90
7192;DHT22;3637;51.494;11.958;2022-12-24T18:36:40;8.50;99.90
7192;DHT22;3637;51.494;11.958;2022-12-24T18:39:43;8.40;99.90
7192;DHT22;3637;51.494;11.958;2022-12-24T18:42:45;8.40;99.90
7192;DHT22;3637;51.494;11.958;2022-12-24T18:45:48;8.30;99.90
7192;DHT22;3637;51.494;11.958;2022-12-24T18:48:50;8.30;99.90
7192;DHT22;3637;51.494;11.958;2022-12-24T18:51:52;8.30;99.90
7192;DHT22;3637;51.494;11.958;2022-12-24T18:54:54;8.20;99.90
7192;DHT22;3637;51.494;11.958;2022-12-24T18:57:56;7.80;99.90
7192;DHT22;3637;51.494;11.958;2022-12-24T19:00:59;8.10;99.90
7192;DHT22;3637;51.494;11.958;2022-12-24T19:04:01;8.00;99.90
7192;DHT22;3637;51.494;11.958;2022-12-24T19:07:03;7.90;99.90
7192;DHT22;3637;51.494;11.958;2022-12-24T19:10:06;7.90;99.90
7192;DHT22;3637;51.494;11.958;2022-12-24T19:13:08;7.80;99.90
7192;DHT22;3637;51.494;11.958;2022-12-24T19:16:11;7.80;99.90
7192;DHT22;3637;51.494;11.958;2022-12-24T19:19:13;7.80;99.90
7192;DHT22;3637;51.494;11.958;2022-12-24T19:22:15;7.70;99.90
7192;DHT22;3637;51.494;11.958;2022-12-24T19:25:16;7.70;99.90
7192;DHT22;3637;51.494;11.958;2022-12-24T19:28:18;8.00;99.90
7192;DHT22;3637;51.494;11.958;2022-12-24T19:31:23;7.60;99.90
7192;DHT22;3637;51.494;11.958;2022-12-24T19:34:25;7.60;99.90
7192;DHT22;3637;51.494;11.958;2022-12-24T19:37:28;7.50;99.90
7192;DHT22;3637;51.494;11.958;2022-12-24T19:40:30;8.10;99.90
7192;DHT22;3637;51.494;11.958;2022-12-24T19:43:35;7.50;99.90
7192;DHT22;3637;51.494;11.958;2022-12-24T19:46:38;7.40;99.90
7192;DHT22;3637;51.494;11.958;2022-12-24T19:49:39;7.40;99.90
7192;DHT22;3637;51.494;11.958;2022-12-24T19:52:41;7.40;99.90
7192;DHT22;3637;51.494;11.958;2022-12-24T19:55:44;7.40;99.90
7192;DHT22;3637;51.494;11.958;2022-12-24T19:58:46;7.40;99.90
7192;DHT22;3637;51.494;11.958;2022-12-24T20:01:49;7.40;99.90